Time;durP1;ratioP1;P1;durP2;ratioP2;P2;SDS_P1;SDS_P2;PMS_P1;PMS_P2;Temp;Humidity;BMP_temperature;BMP_pressure;BME280_temperature;BME280_humidity;BME280_pressure;Samples;Min_cycle;Max_cycle;Signal;HPM_P1;HPM_P2
2022/02/02 00:04:09;;;;;;;10.85;6.03;;;3.50;93.00;;;;;;5056194;28;20324;-71
2022/02/02 00:06:45;;;;;;;10.13;5.18;;;3.50;93.00;;;;;;5043959;28;20033;-71
2022/02/02 00:09:15;;;;;;;9.73;4.82;;;3.50;92.80;;;;;;5042063;28;20334;-71
2022/02/02 00:20:00;;;;;;;8.23;5.47;;;3.60;92.90;;;;;;5045879;28;20034;-71
2022/02/02 00:22:09;;;;;;;10.07;5.25;;;3.60;92.70;;;;;;5042616;28;20041;-70
2022/02/02 00:24:51;;;;;;;9.45;5.18;;;3.60;92.70;;;;;;5056304;28;20040;-70
2022/02/02 00:27:20;;;;;;;10.95;5.85;;;3.60;93.00;;;;;;5052382;28;20036;-69
2022/02/02 00:29:52;;;;;;;16.38;5.90;;;3.80;94.10;;;;;;5056287;28;20370;-69
2022/02/02 00:34:52;;;;;;;14.23;6.07;;;3.80;95.10;;;;;;5049732;28;20071;-70
2022/02/02 00:37:19;;;;;;;9.95;5.35;;;3.80;95.10;;;;;;5044360;28;20033;-70
2022/02/02 00:39:44;;;;;;;11.07;5.63;;;3.80;95.10;;;;;;5047501;28;20317;-70
2022/02/02 00:42:10;;;;;;;11.63;5.45;;;3.80;94.80;;;;;;5041219;28;20037;-70
2022/02/02 00:44:41;;;;;;;13.25;6.40;;;3.90;94.90;;;;;;5038976;28;20029;-69
2022/02/02 00:47:07;;;;;;;11.70;6.55;;;3.90;95.50;;;;;;5048033;28;20346;-70
2022/02/02 00:49:33;;;;;;;12.30;6.10;;;3.90;95.30;;;;;;5039534;28;20025;-69
2022/02/02 00:51:59;;;;;;;12.13;6.60;;;3.90;95.30;;;;;;5040858;28;20044;-69
2022/02/02 00:54:27;;;;;;;11.60;7.07;;;3.90;95.20;;;;;;5050978;28;20341;-70
2022/02/02 00:56:54;;;;;;;14.80;7.22;;;3.90;95.00;;;;;;5047339;28;20085;-71
2022/02/02 00:59:22;;;;;;;22.83;8.05;;;3.90;94.30;;;;;;5044810;28;20025;-70
2022/02/02 01:01:48;;;;;;;13.70;7.15;;;3.90;94.30;;;;;;5050368;28;20032;-70
2022/02/02 01:04:13;;;;;;;14.32;7.38;;;3.90;94.00;;;;;;5041915;28;20421;-70
2022/02/02 01:06:45;;;;;;;14.18;7.05;;;3.90;93.70;;;;;;5045499;28;20097;-70
2022/02/02 01:09:18;;;;;;;17.02;7.60;;;3.80;93.60;;;;;;5050829;28;20060;-71
2022/02/02 01:12:04;;;;;;;14.52;7.75;;;3.80;92.90;;;;;;5045095;28;20025;-71
2022/02/02 01:19:59;;;;;;;14.82;6.63;;;3.80;92.40;;;;;;5047285;28;20032;-69
2022/02/02 01:27:48;;;;;;;14.73;6.45;;;3.80;92.90;;;;;;5038928;28;20029;-70
2022/02/02 01:27:55;;;;;;;12.48;6.22;;;3.80;93.00;;;;;;5052481;28;20049;-68
2022/02/02 01:30:23;;;;;;;15.52;6.03;;;3.80;93.30;;;;;;5051990;28;20037;-70
2022/02/02 01:32:49;;;;;;;10.70;5.40;;;3.80;93.90;;;;;;5039289;28;20013;-70
2022/02/02 01:35:17;;;;;;;12.80;5.40;;;3.80;94.00;;;;;;5041265;28;20021;-70
2022/02/02 01:37:44;;;;;;;12.63;5.68;;;3.90;94.30;;;;;;5047785;28;20291;-69
2022/02/02 01:40:19;;;;;;;13.32;5.43;;;3.90;94.50;;;;;;5042263;28;20022;-69
2022/02/02 01:42:54;;;;;;;10.75;5.22;;;3.90;94.60;;;;;;5051566;28;20025;-68
2022/02/02 01:45:25;;;;;;;15.75;6.13;;;3.90;94.70;;;;;;5041800;28;20341;-70
2022/02/02 01:48:38;;;;;;;12.52;6.55;;;3.90;94.70;;;;;;5041594;28;20032;-69
2022/02/02 01:50:59;;;;;;;13.07;5.82;;;3.90;94.90;;;;;;5053816;28;20037;-69
2022/02/02 01:56:04;;;;;;;15.13;6.50;;;4.00;94.60;;;;;;5041795;28;20071;-70
2022/02/02 02:01:07;;;;;;;12.50;6.05;;;3.90;94.00;;;;;;5046407;28;20071;-70
2022/02/02 02:03:33;;;;;;;16.05;6.80;;;4.00;93.80;;;;;;5048157;28;20037;-70
2022/02/02 02:05:58;;;;;;;16.02;6.60;;;4.00;93.70;;;;;;5044069;28;20029;-68
2022/02/02 02:08:25;;;;;;;13.82;6.65;;;4.00;93.60;;;;;;5046390;28;20029;-70
2022/02/02 02:10:51;;;;;;;15.75;7.40;;;4.00;93.70;;;;;;5050615;28;20046;-69
2022/02/02 02:15:44;;;;;;;16.95;7.35;;;4.00;93.60;;;;;;5043471;28;20126;-69
2022/02/02 02:18:10;;;;;;;13.30;6.60;;;4.00;93.40;;;;;;5037807;28;20032;-70
2022/02/02 02:20:40;;;;;;;19.40;7.80;;;3.90;92.90;;;;;;5040671;28;20112;-70
2022/02/02 02:23:06;;;;;;;16.92;7.70;;;3.90;92.50;;;;;;5045637;28;20079;-70
2022/02/02 02:25:33;;;;;;;19.88;8.35;;;3.90;92.30;;;;;;5036707;28;20404;-70
2022/02/02 02:28:25;;;;;;;15.00;7.38;;;4.00;92.40;;;;;;5047712;28;20028;-70
2022/02/02 02:30:56;;;;;;;17.08;6.88;;;4.00;92.40;;;;;;5056333;28;20029;-69
2022/02/02 02:33:56;;;;;;;17.42;7.30;;;3.90;92.00;;;;;;5045922;28;20021;-70
2022/02/02 02:37:31;;;;;;;13.70;7.65;;;4.00;92.20;;;;;;5038712;28;20028;-69
2022/02/02 02:56:14;;;;;;;19.30;7.50;;;4.00;92.00;;;;;;5044867;28;20048;-69
2022/02/02 02:58:44;;;;;;;;;;;4.00;92.30;;;;;;5044483;28;20033;-69
2022/02/02 03:31:32;;;;;;;12.65;5.18;;;4.20;95.00;;;;;;5045030;28;20044;-69
2022/02/02 03:54:31;;;;;;;15.65;3.42;;;4.10;98.00;;;;;;5042694;28;20491;-69
2022/02/02 04:07:02;;;;;;;12.95;4.47;;;3.90;96.00;;;;;;5046108;28;20353;-70
2022/02/02 04:09:32;;;;;;;12.45;4.60;;;3.90;95.40;;;;;;5056405;28;20037;-69
2022/02/02 04:12:27;;;;;;;11.23;3.67;;;3.80;94.80;;;;;;5046101;28;20026;-69
2022/02/02 04:56:06;;;;;;;16.20;4.78;;;3.90;91.80;;;;;;5040776;28;20071;-69
2022/02/02 04:58:55;;;;;;;17.17;5.03;;;4.00;96.40;;;;;;5037599;28;20044;-69
2022/02/02 05:04:27;;;;;;;14.93;3.78;;;4.00;96.30;;;;;;5046236;28;20095;-69
2022/02/02 05:07:09;;;;;;;18.25;5.75;;;3.90;97.90;;;;;;5037816;28;20437;-69
2022/02/02 05:52:13;;;;;;;22.08;5.97;;;3.70;96.70;;;;;;5041025;28;20064;-70
2022/02/02 05:54:39;;;;;;;21.65;6.85;;;3.70;96.90;;;;;;5043430;28;20013;-70
2022/02/02 05:57:14;;;;;;;18.75;5.18;;;3.60;96.40;;;;;;5048693;28;20158;-70
2022/02/02 05:59:43;;;;;;;15.75;5.72;;;3.60;95.90;;;;;;5047539;28;20059;-71
2022/02/02 06:02:14;;;;;;;12.80;5.70;;;3.60;95.00;;;;;;5045401;28;20021;-71
2022/02/02 06:04:47;;;;;;;14.38;4.43;;;3.60;94.80;;;;;;5046738;28;20460;-71
2022/02/02 06:07:14;;;;;;;28.40;9.10;;;3.60;96.60;;;;;;5051381;28;20029;-71
2022/02/02 06:09:44;;;;;;;22.45;8.30;;;3.50;95.70;;;;;;5053197;28;20028;-71
2022/02/02 06:12:10;;;;;;;20.10;8.18;;;3.60;94.20;;;;;;5038790;28;20166;-71
2022/02/02 06:14:39;;;;;;;15.70;6.40;;;3.60;93.60;;;;;;5037326;28;20034;-70
2022/02/02 06:17:08;;;;;;;22.05;7.00;;;3.60;92.70;;;;;;5051707;28;20032;-70
2022/02/02 06:19:33;;;;;;;22.58;9.98;;;3.70;92.60;;;;;;5043668;28;20418;-70
2022/02/02 06:22:17;;;;;;;24.73;8.88;;;3.70;92.50;;;;;;5044555;28;20076;-70
2022/02/02 06:24:52;;;;;;;30.53;9.27;;;3.70;92.20;;;;;;5035931;28;20053;-71
2022/02/02 06:27:24;;;;;;;19.83;6.57;;;3.70;92.00;;;;;;5049280;28;20544;-70
2022/02/02 06:30:07;;;;;;;16.83;5.68;;;3.70;92.00;;;;;;5055056;28;20032;-70
2022/02/02 06:32:47;;;;;;;14.43;5.75;;;3.70;92.70;;;;;;5039782;28;20033;-70
2022/02/02 06:35:14;;;;;;;16.33;5.03;;;3.70;94.10;;;;;;5035979;28;20022;-70
2022/02/02 06:37:41;;;;;;;17.02;5.55;;;3.70;95.80;;;;;;5050943;28;20459;-70
2022/02/02 06:40:09;;;;;;;16.00;5.40;;;3.70;95.60;;;;;;5054977;28;20115;-69
2022/02/02 06:42:36;;;;;;;15.23;5.47;;;3.70;96.20;;;;;;5042135;28;20414;-70
2022/02/02 06:45:04;;;;;;;17.52;5.45;;;3.70;96.50;;;;;;5035999;28;20029;-70
2022/02/02 06:47:30;;;;;;;15.30;5.30;;;3.70;96.00;;;;;;5046585;28;20090;-70
2022/02/02 06:50:10;;;;;;;19.40;5.57;;;3.70;94.80;;;;;;5044003;28;20034;-70
2022/02/02 07:10:14;;;;;;;;;;;3.70;93.10;;;;;;5046708;28;20033;-69
2022/02/02 07:21:18;;;;;;;15.98;5.18;;;3.80;96.30;;;;;;5044495;28;20056;-70
2022/02/02 07:23:26;;;;;;;16.55;5.80;;;3.80;95.40;;;;;;5035198;28;20420;-70
2022/02/02 07:31:37;;;;;;;25.58;8.05;;;3.70;94.20;;;;;;5041995;28;20028;-70
2022/02/02 07:34:28;;;;;;;22.60;7.45;;;3.70;93.60;;;;;;5038188;28;20131;-70
2022/02/02 07:36:58;;;;;;;22.05;7.15;;;3.70;93.20;;;;;;5039276;28;20026;-70
2022/02/02 07:39:25;;;;;;;21.42;7.57;;;3.70;92.70;;;;;;5043560;28;20432;-70
2022/02/02 07:41:57;;;;;;;30.67;13.52;;;3.70;92.50;;;;;;5039176;28;20028;-70
2022/02/02 07:44:29;;;;;;;21.75;9.63;;;3.70;92.30;;;;;;5038818;28;20021;-70
2022/02/02 07:46:59;;;;;;;23.45;7.15;;;3.70;92.20;;;;;;5056204;28;20082;-69
2022/02/02 07:49:31;;;;;;;28.73;10.98;;;3.70;92.10;;;;;;5057793;28;20037;-70
2022/02/02 07:51:57;;;;;;;20.23;6.50;;;3.70;91.80;;;;;;5038954;28;20025;-69
2022/02/02 07:54:28;;;;;;;19.33;6.05;;;3.70;92.80;;;;;;5043976;28;20025;-69
2022/02/02 07:56:55;;;;;;;21.48;6.60;;;3.70;92.40;;;;;;5038718;28;20053;-70
2022/02/02 07:59:30;;;;;;;30.15;8.88;;;3.70;92.20;;;;;;5039713;28;20033;-70
2022/02/02 08:01:58;;;;;;;25.05;10.07;;;3.70;92.70;;;;;;5047921;28;20036;-69
2022/02/02 08:04:28;;;;;;;32.60;9.75;;;3.80;92.80;;;;;;5058649;28;20021;-68
2022/02/02 08:06:55;;;;;;;29.10;11.80;;;3.80;92.50;;;;;;5045345;28;20032;-68
2022/02/02 08:09:32;;;;;;;26.15;7.63;;;3.80;92.90;;;;;;5044424;28;20029;-68
2022/02/02 08:11:59;;;;;;;21.23;7.60;;;3.80;92.60;;;;;;5038598;28;20390;-68
2022/02/02 08:14:26;;;;;;;21.73;7.07;;;3.80;92.70;;;;;;5050858;28;20021;-70
2022/02/02 08:16:54;;;;;;;35.80;11.90;;;3.80;92.80;;;;;;5056985;28;20024;-70
2022/02/02 08:19:22;;;;;;;25.67;9.07;;;3.80;93.40;;;;;;5044641;28;20052;-70
2022/02/02 08:21:47;;;;;;;33.92;12.85;;;3.80;93.40;;;;;;5038535;28;20051;-70
2022/02/02 08:24:14;;;;;;;35.42;15.00;;;3.80;93.80;;;;;;5047356;28;20041;-70
2022/02/02 08:26:40;;;;;;;29.08;8.27;;;3.80;93.90;;;;;;5058078;28;20017;-69
2022/02/02 08:29:08;;;;;;;27.45;10.85;;;3.90;96.40;;;;;;5048923;28;20031;-69
2022/02/02 08:31:35;;;;;;;32.13;10.57;;;3.90;96.60;;;;;;5038298;28;20053;-69
2022/02/02 08:34:08;;;;;;;33.15;8.85;;;3.90;96.50;;;;;;5037281;28;20037;-69
2022/02/02 08:36:34;;;;;;;26.02;7.30;;;4.00;96.50;;;;;;5038201;28;20051;-69
2022/02/02 08:39:26;;;;;;;28.33;7.93;;;3.90;96.50;;;;;;5038993;28;20093;-70
2022/02/02 08:41:52;;;;;;;29.30;7.95;;;4.00;96.40;;;;;;5040938;28;20017;-69
2022/02/02 08:44:23;;;;;;;29.75;6.50;;;4.00;97.20;;;;;;5053965;28;20119;-69
2022/02/02 08:46:59;;;;;;;29.70;8.07;;;4.10;98.00;;;;;;5051603;28;20032;-70
2022/02/02 08:49:25;;;;;;;25.98;7.45;;;4.20;98.00;;;;;;5048673;28;20029;-69
2022/02/02 08:51:51;;;;;;;26.50;8.23;;;4.20;98.00;;;;;;5037919;28;20104;-69
2022/02/02 08:54:25;;;;;;;20.15;6.85;;;4.30;98.00;;;;;;5037848;28;20111;-69
2022/02/02 08:59:23;;;;;;;27.88;8.63;;;4.30;98.00;;;;;;5040938;28;20044;-69
2022/02/02 09:01:53;;;;;;;23.27;6.85;;;4.30;98.00;;;;;;5056804;28;20094;-70
2022/02/02 09:07:09;;;;;;;27.58;8.93;;;4.30;98.00;;;;;;5057845;28;20048;-68
2022/02/02 09:33:54;;;;;;;29.02;8.60;;;4.30;98.00;;;;;;5035873;28;20025;-69
2022/02/02 09:36:25;;;;;;;24.88;7.75;;;4.40;98.00;;;;;;5053612;28;20028;-68
2022/02/02 09:38:53;;;;;;;27.58;8.48;;;4.40;98.00;;;;;;5055213;28;20033;-68
2022/02/02 09:44:08;;;;;;;20.88;6.88;;;4.50;98.00;;;;;;5051234;28;20056;-69
2022/02/02 09:47:00;;;;;;;22.98;7.35;;;4.50;98.00;;;;;;5056867;28;20021;-69
2022/02/02 09:49:35;;;;;;;22.25;7.68;;;4.60;98.00;;;;;;5040351;28;20029;-70
2022/02/02 09:52:08;;;;;;;26.52;6.28;;;4.70;98.00;;;;;;5036677;28;20438;-69
2022/02/02 09:54:46;;;;;;;19.80;6.13;;;4.80;98.00;;;;;;5036906;28;20361;-69
2022/02/02 10:02:30;;;;;;;25.73;9.43;;;4.90;98.00;;;;;;5036314;28;20371;-70
2022/02/02 10:16:23;;;;;;;17.10;6.13;;;4.70;98.00;;;;;;5054325;28;20495;-70
2022/02/02 10:18:49;;;;;;;29.13;9.10;;;4.80;98.00;;;;;;5042790;28;20037;-69
2022/02/02 10:21:32;;;;;;;28.52;10.32;;;4.80;98.00;;;;;;5036240;28;20105;-69
2022/02/02 10:24:00;;;;;;;34.83;8.90;;;4.80;98.00;;;;;;5053429;28;20024;-70
2022/02/02 10:26:27;;;;;;;34.13;8.55;;;4.80;98.00;;;;;;5044891;28;20272;-68
2022/02/02 10:28:53;;;;;;;28.77;9.30;;;4.90;98.00;;;;;;5036184;28;20440;-68
2022/02/02 10:31:19;;;;;;;52.88;9.50;;;5.00;98.00;;;;;;5036191;28;20033;-68
2022/02/02 10:33:44;;;;;;;24.17;6.78;;;5.10;98.00;;;;;;5049524;28;20051;-68
2022/02/02 10:36:17;;;;;;;25.05;8.20;;;5.10;98.00;;;;;;5053018;28;20052;-67
2022/02/02 10:39:00;;;;;;;28.63;8.38;;;5.20;98.00;;;;;;5055164;28;20032;-68
2022/02/02 10:41:32;;;;;;;33.72;10.20;;;5.30;98.00;;;;;;5044697;28;20040;-68
2022/02/02 10:44:16;;;;;;;28.25;9.25;;;5.30;98.00;;;;;;5036063;28;20030;-68
2022/02/02 10:47:03;;;;;;;22.55;6.65;;;5.40;98.00;;;;;;5036851;28;20025;-68
2022/02/02 10:53:10;;;;;;;20.70;6.65;;;5.60;98.00;;;;;;5049581;28;20032;-68
2022/02/02 11:01:20;;;;;;;20.80;5.50;;;5.70;98.00;;;;;;5050805;28;20326;-66
2022/02/02 11:06:38;;;;;;;;;;;5.80;98.00;;;;;;5038823;28;20056;-66
2022/02/02 11:09:05;;;;;;;25.08;7.03;;;5.90;98.00;;;;;;5039854;28;19931;-69
2022/02/02 11:11:38;;;;;;;25.75;6.43;;;5.90;98.00;;;;;;5041900;28;20036;-69
2022/02/02 11:14:13;;;;;;;25.75;6.38;;;5.80;98.00;;;;;;5048399;28;20032;-69
2022/02/02 11:16:47;;;;;;;17.80;6.72;;;5.90;98.00;;;;;;5040545;28;20076;-69
2022/02/02 11:19:16;;;;;;;26.23;8.20;;;5.90;98.00;;;;;;5058678;28;20025;-69
2022/02/02 11:21:42;;;;;;;19.95;6.82;;;5.90;98.00;;;;;;5059330;28;20025;-68
2022/02/02 11:24:16;;;;;;;21.20;5.72;;;5.90;98.00;;;;;;5059133;28;20053;-68
2022/02/02 11:26:43;;;;;;;;;;;5.90;98.00;;;;;;5059974;28;20044;-68
2022/02/02 11:29:09;;;;;;;22.60;7.18;;;6.00;98.00;;;;;;5056678;28;19912;-68
2022/02/02 11:31:58;;;;;;;20.85;5.78;;;6.20;98.00;;;;;;5039496;28;20017;-68
2022/02/02 11:34:24;;;;;;;23.83;5.93;;;6.20;98.00;;;;;;5039249;28;20422;-68
2022/02/02 11:36:57;;;;;;;18.35;4.78;;;6.10;98.00;;;;;;5041007;28;20036;-69
2022/02/02 11:39:47;;;;;;;18.88;5.10;;;6.10;98.00;;;;;;5059292;28;20047;-69
2022/02/02 11:43:01;;;;;;;19.55;6.63;;;6.00;98.00;;;;;;5055680;28;20287;-69
2022/02/02 11:45:56;;;;;;;20.60;5.95;;;6.00;98.00;;;;;;5054398;28;20033;-69
2022/02/02 11:48:51;;;;;;;23.35;5.22;;;6.10;98.00;;;;;;5058026;28;20025;-69
2022/02/02 11:51:46;;;;;;;27.40;6.90;;;6.20;98.00;;;;;;5058929;28;20033;-69
2022/02/02 11:54:19;;;;;;;35.28;6.85;;;6.30;98.00;;;;;;5059036;28;20059;-69
2022/02/02 11:57:09;;;;;;;22.60;5.93;;;6.40;98.00;;;;;;5058810;28;20021;-69
2022/02/02 12:07:50;;;;;;;32.05;9.43;;;6.40;98.00;;;;;;5038807;28;20025;-69
2022/02/02 12:49:09;;;;;;;17.67;5.50;;;5.50;98.00;;;;;;5038432;28;20032;-68
2022/02/02 12:55:31;;;;;;;17.50;7.65;;;5.30;98.00;;;;;;5043910;28;20064;-68
2022/02/02 12:57:36;;;;;;;14.75;5.60;;;5.20;98.00;;;;;;5041510;28;20044;-68
2022/02/02 13:00:11;;;;;;;17.30;7.35;;;5.20;98.00;;;;;;5042289;28;20036;-66
2022/02/02 13:02:39;;;;;;;15.23;5.25;;;5.20;98.00;;;;;;5048485;28;20414;-66
2022/02/02 13:05:16;;;;;;;16.42;6.85;;;5.40;98.00;;;;;;5046681;28;20037;-67
2022/02/02 13:07:46;;;;;;;20.13;7.55;;;5.40;98.00;;;;;;5052830;28;20115;-67
2022/02/02 13:10:15;;;;;;;18.63;6.15;;;5.50;98.00;;;;;;5047039;28;20028;-67
2022/02/02 13:23:37;;;;;;;17.15;6.47;;;5.40;98.00;;;;;;5050602;28;20040;-66
2022/02/02 13:26:09;;;;;;;17.08;6.47;;;5.50;98.00;;;;;;5055793;28;20045;-68
2022/02/02 13:28:52;;;;;;;17.67;6.93;;;5.60;98.00;;;;;;5057167;28;20410;-68
2022/02/02 13:31:31;;;;;;;21.08;6.30;;;5.60;98.00;;;;;;5050454;28;20035;-67
2022/02/02 13:34:12;;;;;;;21.75;6.05;;;5.60;98.00;;;;;;5043310;28;20453;-66
2022/02/02 13:48:13;;;;;;;17.95;5.00;;;5.70;98.00;;;;;;5055053;28;20075;-66
2022/02/02 14:01:54;;;;;;;17.67;4.88;;;5.80;98.00;;;;;;5045935;28;20018;-67
2022/02/02 14:07:09;;;;;;;22.23;8.85;;;5.80;98.00;;;;;;5050814;28;20307;-67
2022/02/02 14:31:23;;;;;;;18.00;5.10;;;5.40;98.00;;;;;;5039014;28;20033;-68
2022/02/02 14:33:53;;;;;;;14.63;6.05;;;5.50;98.00;;;;;;5046389;28;20021;-68
2022/02/02 14:36:24;;;;;;;13.10;5.50;;;5.40;98.00;;;;;;5034378;28;20029;-68
2022/02/02 14:39:10;;;;;;;17.10;6.45;;;5.40;98.00;;;;;;5040735;28;20082;-68
2022/02/02 14:41:57;;;;;;;11.90;6.15;;;5.40;98.00;;;;;;5041186;28;20048;-69
2022/02/02 14:44:36;;;;;;;12.57;5.72;;;5.40;98.00;;;;;;5042712;28;20041;-68
2022/02/02 14:49:49;;;;;;;12.02;4.80;;;5.30;98.00;;;;;;5038016;28;20037;-68
2022/02/02 14:55:23;;;;;;;23.83;12.10;;;5.20;98.00;;;;;;5050426;28;20146;-68
2022/02/02 15:06:48;;;;;;;16.83;9.73;;;5.00;98.00;;;;;;5041307;28;20044;-68
2022/02/02 15:27:53;;;;;;;10.70;5.78;;;5.00;98.00;;;;;;5034226;28;20084;-67
2022/02/02 15:32:56;;;;;;;11.38;5.50;;;4.90;97.60;;;;;;5033879;28;20036;-68
2022/02/02 15:35:24;;;;;;;14.93;7.55;;;4.80;97.10;;;;;;5047573;28;20095;-68
2022/02/02 15:38:01;;;;;;;17.65;8.43;;;4.80;96.50;;;;;;5045109;28;20076;-68
2022/02/02 15:40:33;;;;;;;10.75;5.38;;;4.70;96.30;;;;;;5038326;28;20021;-67
2022/02/02 15:43:22;;;;;;;12.00;6.72;;;4.70;95.70;;;;;;5053811;28;20025;-67
2022/02/02 15:59:39;;;;;;;15.73;8.35;;;4.60;93.70;;;;;;5044472;28;20441;-67
2022/02/02 16:02:09;;;;;;;15.90;8.45;;;4.60;94.10;;;;;;5037895;28;20060;-67
2022/02/02 16:04:37;;;;;;;19.67;10.15;;;4.60;93.20;;;;;;5036596;28;20314;-68
2022/02/02 16:07:05;;;;;;;20.05;13.70;;;4.60;93.50;;;;;;5037932;28;20428;-68
2022/02/02 16:10:19;;;;;;;19.15;11.70;;;4.60;93.20;;;;;;5054256;28;20071;-68
2022/02/02 16:12:26;;;;;;;14.77;8.23;;;4.50;93.10;;;;;;5043579;28;20029;-67
2022/02/02 16:15:29;;;;;;;13.77;7.60;;;4.50;92.90;;;;;;5038641;28;20029;-69
2022/02/02 16:39:01;;;;;;;20.08;10.73;;;4.40;91.20;;;;;;5051516;28;20044;-67
2022/02/02 16:44:11;;;;;;;22.30;11.43;;;4.50;90.70;;;;;;5045814;28;20068;-67
2022/02/02 16:46:37;;;;;;;19.00;11.40;;;4.50;91.20;;;;;;5042842;28;20329;-67
2022/02/02 16:49:04;;;;;;;20.13;11.60;;;4.50;91.00;;;;;;5037900;28;20030;-68
2022/02/02 16:51:30;;;;;;;17.13;10.15;;;4.60;90.70;;;;;;5043643;28;20419;-67
2022/02/02 16:53:59;;;;;;;16.83;10.45;;;4.60;90.70;;;;;;5038815;28;20029;-67
2022/02/02 16:56:43;;;;;;;18.60;12.23;;;4.60;90.80;;;;;;5047233;28;20022;-68
2022/02/02 17:24:27;;;;;;;23.92;16.45;;;4.60;88.40;;;;;;5054710;28;20103;-70
2022/02/02 17:32:05;;;;;;;12.27;7.18;;;4.50;88.40;;;;;;5047740;28;20059;-67
2022/02/02 17:37:18;;;;;;;13.60;8.65;;;4.50;87.40;;;;;;5050703;28;20021;-69
2022/02/02 17:39:57;;;;;;;13.50;8.45;;;4.60;87.10;;;;;;5037413;28;20029;-68
2022/02/02 17:45:11;;;;;;;10.70;6.50;;;4.60;87.20;;;;;;5046278;28;20039;-69
2022/02/02 17:56:26;;;;;;;10.57;6.30;;;4.80;87.40;;;;;;5036589;28;20152;-69
2022/02/02 18:20:14;;;;;;;32.65;20.45;;;4.80;88.00;;;;;;5054707;28;20117;-68
2022/02/02 18:22:49;;;;;;;27.25;19.15;;;4.90;87.80;;;;;;5044616;28;20400;-68
2022/02/02 18:25:28;;;;;;;30.50;18.52;;;4.80;88.10;;;;;;5045250;28;20082;-68
2022/02/02 18:28:07;;;;;;;23.50;13.82;;;4.80;88.00;;;;;;5046123;28;20036;-68
2022/02/02 18:30:52;;;;;;;17.67;9.30;;;4.90;87.70;;;;;;5035976;28;20065;-69
2022/02/02 18:33:29;;;;;;;11.57;6.97;;;4.90;87.40;;;;;;5043214;28;20057;-70
2022/02/02 18:44:23;;;;;;;17.13;9.93;;;4.90;88.60;;;;;;5055779;28;20025;-68
2022/02/02 18:46:33;;;;;;;14.32;8.98;;;4.80;88.20;;;;;;5035061;28;20025;-68
2022/02/02 18:57:10;;;;;;;14.15;9.93;;;4.70;88.30;;;;;;5044154;28;19909;-68
2022/02/02 19:02:17;;;;;;;16.10;10.02;;;4.70;87.60;;;;;;5050699;28;20037;-68
2022/02/02 19:37:44;;;;;;;11.43;7.72;;;5.00;87.00;;;;;;5052241;28;20068;-67
2022/02/02 19:56:43;;;;;;;20.25;11.38;;;5.10;87.90;;;;;;5052452;28;20159;-67
2022/02/02 20:07:08;;;;;;;9.95;6.20;;;5.10;88.90;;;;;;5058191;28;20408;-69
2022/02/02 20:12:26;;;;;;;9.30;6.32;;;5.10;88.90;;;;;;5056498;28;20050;-68
2022/02/02 20:14:52;;;;;;;16.20;10.27;;;5.10;90.10;;;;;;5042440;28;20436;-68
2022/02/02 20:17:20;;;;;;;11.63;8.32;;;5.00;91.20;;;;;;5040509;28;20060;-68
2022/02/02 20:19:52;;;;;;;9.43;6.55;;;5.00;89.70;;;;;;5038083;28;20030;-69
2022/02/02 20:22:20;;;;;;;12.30;9.13;;;5.00;89.80;;;;;;5046387;28;20106;-68
2022/02/02 20:25:00;;;;;;;11.95;9.10;;;5.00;90.70;;;;;;5050334;28;20167;-67
2022/02/02 20:27:29;;;;;;;19.20;16.02;;;5.00;90.80;;;;;;5052350;28;20029;-69
2022/02/02 20:29:55;;;;;;;14.20;9.65;;;4.90;90.10;;;;;;5052975;28;20029;-68
2022/02/02 20:32:22;;;;;;;9.00;6.03;;;4.90;91.10;;;;;;5054409;28;20060;-69
2022/02/02 20:34:48;;;;;;;7.28;4.18;;;4.90;90.00;;;;;;5056808;28;20425;-69
2022/02/02 20:37:28;;;;;;;5.25;3.10;;;5.00;90.50;;;;;;5048617;28;20017;-67
2022/02/02 20:40:00;;;;;;;4.55;2.60;;;5.10;89.80;;;;;;5054822;28;20413;-68
2022/02/02 20:42:36;;;;;;;11.02;7.35;;;5.20;89.90;;;;;;5046216;28;20044;-68
2022/02/02 21:14:38;;;;;;;5.93;3.75;;;5.30;90.80;;;;;;5046210;28;20056;-67
2022/02/02 21:17:06;;;;;;;7.95;4.88;;;5.40;90.80;;;;;;5039314;28;20051;-67
2022/02/02 21:19:44;;;;;;;9.93;6.70;;;5.40;91.80;;;;;;5043736;28;20059;-68
2022/02/02 21:22:11;;;;;;;8.73;5.75;;;5.30;92.30;;;;;;5035245;28;20065;-68
2022/02/02 21:27:40;;;;;;;10.05;6.00;;;5.20;92.40;;;;;;5037064;28;20069;-67
2022/02/02 21:30:09;;;;;;;7.78;4.47;;;5.10;92.10;;;;;;5042929;28;20060;-68
2022/02/02 21:32:36;;;;;;;10.45;6.35;;;5.30;91.40;;;;;;5041727;28;20021;-68
2022/02/02 21:35:08;;;;;;;13.43;9.02;;;5.30;92.10;;;;;;5038272;28;20028;-69
2022/02/02 21:37:36;;;;;;;14.23;9.07;;;5.30;92.30;;;;;;5050667;28;20033;-68
2022/02/02 21:40:18;;;;;;;14.07;8.95;;;5.30;91.90;;;;;;5036667;28;20063;-67
2022/02/02 21:42:46;;;;;;;7.95;4.68;;;5.30;91.90;;;;;;5047655;28;20410;-68
2022/02/02 21:45:13;;;;;;;6.22;3.97;;;5.30;91.40;;;;;;5042849;28;20521;-67
2022/02/02 21:47:39;;;;;;;7.80;5.03;;;5.40;91.60;;;;;;5042110;28;20119;-67
2022/02/02 21:50:10;;;;;;;5.82;3.85;;;5.40;91.60;;;;;;5035688;28;20034;-67
2022/02/02 21:52:37;;;;;;;7.25;4.22;;;5.40;91.80;;;;;;5040971;28;20025;-68
2022/02/02 21:55:06;;;;;;;11.88;5.80;;;5.50;91.60;;;;;;5034808;28;20037;-68
2022/02/02 21:57:32;;;;;;;8.45;4.95;;;5.30;93.20;;;;;;5044451;28;20044;-68
2022/02/02 21:59:58;;;;;;;13.68;7.47;;;5.20;92.50;;;;;;5046355;28;20291;-67
2022/02/02 22:02:24;;;;;;;21.27;11.18;;;5.30;91.80;;;;;;5043049;28;20047;-67
2022/02/02 22:04:50;;;;;;;10.57;6.28;;;5.30;92.10;;;;;;5050080;28;20051;-67
2022/02/02 22:07:16;;;;;;;11.65;6.30;;;5.30;91.50;;;;;;5038476;28;20036;-67
2022/02/02 22:09:45;;;;;;;10.15;6.05;;;5.40;91.50;;;;;;5035873;28;20035;-66
2022/02/02 22:12:12;;;;;;;9.27;5.28;;;5.50;91.70;;;;;;5032941;28;20025;-66
2022/02/02 22:14:40;;;;;;;11.52;6.90;;;5.50;91.50;;;;;;5047157;28;20110;-67
2022/02/02 22:17:06;;;;;;;7.63;4.68;;;5.60;91.80;;;;;;5034888;28;20049;-68
2022/02/02 22:19:35;;;;;;;7.50;4.30;;;5.60;91.30;;;;;;5042661;28;20414;-67
2022/02/02 22:22:01;;;;;;;10.23;5.45;;;5.70;91.30;;;;;;5040369;28;20036;-66
2022/02/02 22:24:34;;;;;;;10.45;6.65;;;5.60;92.20;;;;;;5031934;28;20518;-66
2022/02/02 22:27:00;;;;;;;11.23;6.57;;;5.60;92.30;;;;;;5037850;28;20029;-68
2022/02/02 22:29:26;;;;;;;8.98;5.97;;;5.60;92.20;;;;;;5038507;28;20044;-67
2022/02/02 22:31:51;;;;;;;13.32;8.23;;;5.50;91.60;;;;;;5048280;28;20381;-68
2022/02/02 22:34:17;;;;;;;10.60;7.00;;;5.60;91.50;;;;;;5052040;28;20121;-68
2022/02/02 22:36:43;;;;;;;8.95;5.63;;;5.60;91.50;;;;;;5043911;28;20096;-67
2022/02/02 22:39:11;;;;;;;14.63;8.07;;;5.50;91.30;;;;;;5043183;28;20111;-68
2022/02/02 22:41:38;;;;;;;12.07;7.60;;;5.60;90.90;;;;;;5038612;28;20039;-68
2022/02/02 22:44:10;;;;;;;9.48;6.07;;;5.60;90.60;;;;;;5033303;28;20385;-68
2022/02/02 22:46:37;;;;;;;12.52;8.02;;;5.60;90.40;;;;;;5051203;28;20024;-69
2022/02/02 22:49:03;;;;;;;13.55;8.43;;;5.60;90.50;;;;;;5036032;28;20044;-68
2022/02/02 22:51:30;;;;;;;12.25;6.50;;;5.60;90.90;;;;;;5040531;28;20029;-70
2022/02/02 22:53:57;;;;;;;10.18;6.45;;;5.60;90.20;;;;;;5047747;28;20033;-69
2022/02/02 22:56:22;;;;;;;5.90;3.83;;;5.60;90.40;;;;;;5039225;28;20017;-70
2022/02/02 22:58:50;;;;;;;9.63;5.15;;;5.60;89.80;;;;;;5043961;28;20059;-70
2022/02/02 23:01:25;;;;;;;10.35;6.55;;;5.70;89.50;;;;;;5038556;28;20369;-70
2022/02/02 23:03:55;;;;;;;9.52;5.65;;;5.70;89.90;;;;;;5044530;28;20094;-70
2022/02/02 23:06:21;;;;;;;8.68;5.55;;;5.60;89.60;;;;;;5043300;28;20322;-70
2022/02/02 23:08:47;;;;;;;9.80;5.82;;;5.70;89.40;;;;;;5050491;28;20025;-69
2022/02/02 23:11:14;;;;;;;8.98;5.22;;;5.70;89.60;;;;;;5051647;28;20405;-69
2022/02/02 23:13:42;;;;;;;11.07;7.25;;;5.70;90.00;;;;;;5044086;28;20071;-69
2022/02/02 23:16:19;;;;;;;10.20;7.40;;;5.70;90.00;;;;;;5051937;28;20017;-69
2022/02/02 23:18:44;;;;;;;8.85;6.10;;;5.70;89.90;;;;;;5041299;28;20537;-69
2022/02/02 23:21:12;;;;;;;10.65;6.47;;;5.70;89.60;;;;;;5052362;28;20060;-70
2022/02/02 23:23:50;;;;;;;7.80;5.43;;;5.70;89.10;;;;;;5039600;28;20033;-69
2022/02/02 23:26:17;;;;;;;8.80;5.50;;;5.70;88.90;;;;;;5046082;28;20043;-70
2022/02/02 23:28:46;;;;;;;10.00;5.97;;;5.70;89.60;;;;;;5053910;28;20023;-69
2022/02/02 23:31:14;;;;;;;8.65;6.13;;;5.70;89.50;;;;;;5047964;28;20029;-69
2022/02/02 23:33:43;;;;;;;10.20;6.15;;;5.70;89.60;;;;;;5039902;28;20018;-69
2022/02/02 23:36:10;;;;;;;8.77;6.20;;;5.70;89.20;;;;;;5051940;28;20078;-69
2022/02/02 23:38:36;;;;;;;13.60;7.10;;;5.70;89.10;;;;;;5047852;28;20018;-69
2022/02/02 23:43:28;;;;;;;13.02;8.48;;;5.70;88.80;;;;;;5048038;28;20029;-70
2022/02/02 23:45:59;;;;;;;13.00;7.32;;;5.70;89.50;;;;;;5039619;28;20033;-69
2022/02/02 23:48:31;;;;;;;12.80;7.88;;;5.70;89.00;;;;;;5045556;28;20112;-69
2022/02/02 23:51:01;;;;;;;12.05;7.28;;;5.60;89.30;;;;;;5063563;28;20078;-69
2022/02/02 23:53:30;;;;;;;15.75;9.05;;;5.60;89.20;;;;;;5052539;28;20441;-69
2022/02/02 23:56:06;;;;;;;9.95;6.85;;;5.60;89.20;;;;;;5045684;28;20134;-69
2022/02/02 23:58:42;;;;;;;9.80;6.38;;;5.60;88.60;;;;;;5050318;28;20029;-69
